Conscripto Bernardi, Argentina
Current Conditions -  °F | °C
As of 1:00 PM on Thursday 30 Oct 2014 (Local Time) from SUSO Reporting Station
Broken Clouds Broken Clouds  
Wind Chill: 77°   Ceiling: 1700
Heat Index: 79°   Visibility: 6mi
Dew Point: 66°   Wind: 7mph
Humidity: 69%   Direction: 160°SSE
Pressure: 29.77"   Gusts: NA
Location:  31.05°S, 59.09°W
Report Text: SUSO 301600Z 16006KT 9999 BKN017 25/19 Q1008
Loading
Personal Weather Stations






























Interactive Weather Map
Tropical Storm Tracking
New forecast layout! Learn more

10-Day Weather Forecast

Advertisements
Track Severe Weather on mobile